Time;durP1;ratioP1;P1;durP2;ratioP2;P2;SDS_P1;SDS_P2;PMS_P1;PMS_P2;Temp;Humidity;BMP_temperature;BMP_pressure;BME280_temperature;BME280_humidity;BME280_pressure;Samples;Min_cycle;Max_cycle;Signal;HPM_P1;HPM_P2
2023/05/03 00:00:07;;;;;;;4.03;1.35;;;;;;;8.66;72.03;102888.97;5005032;28;20046;-65
2023/05/03 00:02:37;;;;;;;5.57;1.20;;;;;;;8.67;72.27;102889.81;4999505;28;20050;-66
2023/05/03 00:05:07;;;;;;;2.95;1.00;;;;;;;8.65;71.65;102894.28;5007832;28;20053;-65
2023/05/03 00:07:34;;;;;;;3.40;0.90;;;;;;;8.59;71.16;102894.63;5002672;28;20705;-65
2023/05/03 00:10:00;;;;;;;4.80;1.77;;;;;;;8.51;71.79;102887.19;5004099;28;20160;-66
2023/05/03 00:12:27;;;;;;;2.85;0.82;;;;;;;8.49;71.47;102886.41;5003996;28;20077;-65
2023/05/03 00:14:53;;;;;;;3.95;1.15;;;;;;;8.49;71.45;102894.25;5010479;28;20422;-65
2023/05/03 00:17:20;;;;;;;2.90;1.33;;;;;;;8.46;70.79;102897.03;5009621;28;20106;-64
2023/05/03 00:19:47;;;;;;;6.50;1.45;;;;;;;8.46;71.57;102892.63;4996897;28;20060;-64
2023/05/03 00:22:13;;;;;;;2.05;0.80;;;;;;;8.43;70.45;102887.59;5006246;28;20046;-65
2023/05/03 00:24:40;;;;;;;5.32;1.10;;;;;;;8.38;71.56;102886.09;4999120;28;20054;-66
2023/05/03 00:27:06;;;;;;;3.72;1.17;;;;;;;8.36;71.34;102891.41;5005212;28;20064;-65
2023/05/03 00:29:33;;;;;;;5.55;1.30;;;;;;;8.38;71.08;102891.34;5008204;28;20495;-66
2023/05/03 00:32:01;;;;;;;2.40;0.80;;;;;;;8.37;70.59;102887.88;5006883;28;20128;-65
2023/05/03 00:34:27;;;;;;;6.03;1.30;;;;;;;8.37;71.22;102887.03;5011068;28;20046;-65
2023/05/03 00:36:54;;;;;;;1.98;0.95;;;;;;;8.30;71.08;102887.34;4999676;28;20129;-65
2023/05/03 00:39:20;;;;;;;2.00;1.10;;;;;;;8.25;70.95;102889.38;5006860;28;20060;-64
2023/05/03 00:41:46;;;;;;;3.60;1.40;;;;;;;8.25;70.96;102888.50;5002553;28;20054;-65
2023/05/03 00:44:13;;;;;;;3.10;1.20;;;;;;;8.23;72.00;102893.84;5009212;28;20054;-65
2023/05/03 00:46:39;;;;;;;4.40;1.23;;;;;;;8.24;71.12;102892.91;5010865;28;20108;-66
2023/05/03 00:49:06;;;;;;;4.65;1.00;;;;;;;8.20;72.24;102886.16;4998284;28;20061;-67
2023/05/03 00:51:32;;;;;;;6.45;1.20;;;;;;;8.15;72.58;102888.16;4992659;28;20499;-65
2023/05/03 00:53:59;;;;;;;2.55;1.00;;;;;;;8.17;71.62;102888.06;4999934;28;20605;-65
2023/05/03 00:56:27;;;;;;;3.50;1.10;;;;;;;8.14;72.16;102885.63;5009874;28;20049;-65
2023/05/03 00:58:56;;;;;;;9.25;1.33;;;;;;;8.11;72.37;102884.00;5003010;28;20053;-66
2023/05/03 01:01:24;;;;;;;3.88;1.17;;;;;;;8.04;74.81;102890.50;5010667;28;20061;-64
2023/05/03 01:03:50;;;;;;;2.90;0.98;;;;;;;8.04;73.37;102887.88;5006483;28;20121;-66
2023/05/03 01:06:24;;;;;;;4.80;1.40;;;;;;;8.06;73.66;102892.09;4999146;28;20048;-65
2023/05/03 01:08:57;;;;;;;2.05;0.95;;;;;;;7.99;74.44;102890.72;5009840;28;20042;-65
2023/05/03 01:11:29;;;;;;;3.58;1.20;;;;;;;7.94;75.15;102884.91;5003370;28;20057;-65
2023/05/03 01:14:03;;;;;;;2.38;1.10;;;;;;;7.89;75.74;102885.09;5010572;28;20838;-63
2023/05/03 01:16:38;;;;;;;6.80;1.23;;;;;;;7.88;75.37;102880.81;5004477;28;20077;-63
2023/05/03 01:19:25;;;;;;;8.30;1.15;;;;;;;7.91;74.93;102879.81;5005302;28;20159;-66
2023/05/03 01:22:01;;;;;;;5.13;1.15;;;;;;;7.91;73.88;102869.34;5001546;28;20556;-65
2023/05/03 01:24:30;;;;;;;3.40;1.30;;;;;;;7.93;74.64;102891.03;5008471;28;20133;-65
2023/05/03 01:26:58;;;;;;;3.72;1.30;;;;;;;7.91;74.90;102888.47;5009675;28;20045;-64
2023/05/03 01:29:24;;;;;;;2.00;0.90;;;;;;;7.92;74.12;102891.97;5003900;28;20545;-68
2023/05/03 01:31:59;;;;;;;4.50;1.60;;;;;;;7.85;76.18;102895.81;5004238;28;20105;-67
2023/05/03 01:34:56;;;;;;;3.22;1.20;;;;;;;7.81;76.96;102902.13;4993752;28;20053;-64
2023/05/03 01:37:24;;;;;;;4.00;1.27;;;;;;;7.76;76.03;102901.50;5003891;28;20041;-65
2023/05/03 01:39:58;;;;;;;5.38;1.25;;;;;;;7.73;77.15;102900.72;5002794;28;20072;-65
2023/05/03 01:42:26;;;;;;;5.68;1.30;;;;;;;7.70;76.83;102889.56;4997697;28;20496;-65
2023/05/03 01:44:53;;;;;;;5.22;1.10;;;;;;;7.66;78.76;102895.88;5004418;28;20046;-65
2023/05/03 01:47:20;;;;;;;4.32;1.40;;;;;;;7.69;77.54;102904.41;5004154;28;20053;-65
2023/05/03 01:49:46;;;;;;;3.25;1.02;;;;;;;7.72;77.82;102900.78;5005590;28;20060;-65
2023/05/03 01:52:13;;;;;;;5.38;1.27;;;;;;;7.66;77.55;102895.88;5002456;28;20046;-65
2023/05/03 01:54:39;;;;;;;4.07;1.45;;;;;;;7.62;78.16;102891.72;5009869;28;20057;-66
2023/05/03 01:57:06;;;;;;;5.00;1.30;;;;;;;7.57;79.55;102889.34;5003673;28;20050;-65
2023/05/03 01:59:32;;;;;;;5.53;1.35;;;;;;;7.57;79.36;102893.75;5005482;28;20458;-65
2023/05/03 02:01:58;;;;;;;6.05;1.60;;;;;;;7.56;79.26;102884.19;4997382;28;20054;-65
2023/05/03 02:04:25;;;;;;;4.50;1.52;;;;;;;7.53;79.60;102880.00;5006222;28;20067;-65
2023/05/03 02:06:51;;;;;;;3.70;1.20;;;;;;;7.56;77.65;102887.66;5004572;28;21167;-66
2023/05/03 02:09:18;;;;;;;2.47;1.30;;;;;;;7.53;79.97;102886.03;5000532;28;20145;-64
2023/05/03 02:11:44;;;;;;;4.53;1.17;;;;;;;7.57;79.60;102891.97;5005615;28;20046;-65
2023/05/03 02:14:11;;;;;;;2.05;1.15;;;;;;;7.56;78.78;102886.81;5002048;28;20084;-67
2023/05/03 02:16:37;;;;;;;4.22;1.30;;;;;;;7.49;79.61;102884.50;5002570;28;20423;-65
2023/05/03 02:19:04;;;;;;;4.40;1.30;;;;;;;7.53;81.70;102893.03;4994887;28;20092;-65
2023/05/03 02:21:32;;;;;;;3.15;1.38;;;;;;;7.57;79.43;102894.59;4996337;28;20046;-65
2023/05/03 02:23:59;;;;;;;4.22;1.88;;;;;;;7.52;80.44;102886.94;5004283;28;20053;-67
2023/05/03 02:26:26;;;;;;;5.60;1.70;;;;;;;7.49;80.72;102894.97;5002420;28;20240;-66
2023/05/03 02:28:54;;;;;;;4.38;1.55;;;;;;;7.44;80.59;102889.09;5001244;28;20054;-65
2023/05/03 02:31:21;;;;;;;4.20;1.50;;;;;;;7.44;81.68;102889.09;4997300;28;20054;-65
2023/05/03 02:33:48;;;;;;;10.02;1.90;;;;;;;7.41;81.80;102891.88;5008853;28;20080;-65
2023/05/03 02:36:14;;;;;;;6.03;1.80;;;;;;;7.37;81.84;102885.13;5000422;28;20061;-65
2023/05/03 02:38:41;;;;;;;5.38;1.58;;;;;;;7.31;82.50;102883.66;5008568;28;20054;-67
2023/05/03 02:41:07;;;;;;;7.13;1.70;;;;;;;7.30;81.83;102875.88;5008766;28;20997;-66
2023/05/03 02:43:33;;;;;;;4.03;1.55;;;;;;;7.29;82.14;102877.66;4995832;28;20084;-65
2023/05/03 02:46:00;;;;;;;6.40;1.77;;;;;;;7.26;84.92;102882.19;5002831;28;20050;-65
2023/05/03 02:48:26;;;;;;;9.88;1.58;;;;;;;7.23;86.22;102880.56;5002551;28;20046;-65
2023/05/03 02:50:53;;;;;;;4.07;1.65;;;;;;;7.14;86.47;102870.56;5008292;28;20053;-67
2023/05/03 02:53:20;;;;;;;5.68;1.60;;;;;;;7.13;86.26;102874.06;5003144;28;20064;-65
2023/05/03 02:55:46;;;;;;;5.10;1.65;;;;;;;7.13;85.53;102876.69;5008325;28;20049;-65
2023/05/03 02:58:14;;;;;;;4.35;1.30;;;;;;;7.11;85.84;102865.47;5000414;28;20129;-67
2023/05/03 03:00:40;;;;;;;4.72;1.60;;;;;;;7.06;85.88;102860.50;5001982;28;20132;-70
2023/05/03 03:03:07;;;;;;;7.32;1.70;;;;;;;7.01;88.01;102856.41;5008919;28;20054;-71
2023/05/03 03:05:33;;;;;;;5.53;1.90;;;;;;;6.97;88.02;102860.91;4997977;28;20046;-70
2023/05/03 03:08:00;;;;;;;4.72;1.88;;;;;;;6.92;88.82;102857.72;5009001;28;20154;-71
2023/05/03 03:10:26;;;;;;;2.90;1.70;;;;;;;6.90;88.58;102851.72;4990690;28;20110;-69
2023/05/03 03:12:53;;;;;;;5.07;1.77;;;;;;;6.84;88.16;102851.97;5001713;28;20092;-70
2023/05/03 03:15:20;;;;;;;7.03;2.00;;;;;;;6.82;88.87;102849.47;5007703;28;20049;-71
2023/05/03 03:17:46;;;;;;;4.47;1.80;;;;;;;6.77;90.18;102842.78;5002166;28;20132;-70
2023/05/03 03:20:13;;;;;;;4.75;1.83;;;;;;;6.70;91.17;102843.06;5008335;28;20506;-70
2023/05/03 03:22:39;;;;;;;4.75;2.00;;;;;;;6.67;92.31;102835.38;5002562;28;20046;-70
2023/05/03 03:25:06;;;;;;;3.95;1.85;;;;;;;6.67;92.13;102840.59;5004451;28;20058;-70
2023/05/03 03:27:33;;;;;;;6.40;1.90;;;;;;;6.62;92.74;102846.94;4998181;28;20197;-69
2023/05/03 03:29:59;;;;;;;5.18;1.85;;;;;;;6.57;93.71;102843.69;5007364;28;20046;-70
2023/05/03 03:32:26;;;;;;;5.18;2.38;;;;;;;6.63;93.79;102846.03;5008176;28;20725;-70
2023/05/03 03:34:53;;;;;;;4.47;1.83;;;;;;;6.62;92.58;102852.97;5000720;28;20045;-70
2023/05/03 03:37:22;;;;;;;7.45;2.10;;;;;;;6.59;92.32;102862.72;5008236;28;20487;-70
2023/05/03 03:39:48;;;;;;;5.07;1.85;;;;;;;6.54;92.27;102868.97;4994317;28;20065;-70
2023/05/03 03:42:14;;;;;;;6.35;1.95;;;;;;;6.52;91.65;102865.59;5005096;28;20056;-70
2023/05/03 03:44:42;;;;;;;7.53;2.53;;;;;;;6.52;90.49;102856.94;5003119;28;20658;-70
2023/05/03 03:47:09;;;;;;;5.30;2.08;;;;;;;6.49;92.36;102859.69;5008164;28;20557;-70
2023/05/03 03:49:35;;;;;;;5.72;2.20;;;;;;;6.51;92.92;102866.53;5008278;28;20064;-70
2023/05/03 03:52:02;;;;;;;5.72;2.35;;;;;;;6.49;92.49;102867.53;4998908;28;20056;-69
2023/05/03 03:54:28;;;;;;;2.13;1.90;;;;;;;6.44;93.70;102861.66;5004082;28;20477;-70
2023/05/03 03:56:55;;;;;;;4.63;1.88;;;;;;;6.47;93.34;102858.91;4991535;28;20072;-70
2023/05/03 03:59:21;;;;;;;8.82;2.40;;;;;;;6.47;93.55;102869.34;5007481;28;20053;-70
2023/05/03 04:01:47;;;;;;;3.70;2.50;;;;;;;6.46;94.01;102863.25;5008090;28;20073;-69
2023/05/03 04:04:14;;;;;;;5.18;2.42;;;;;;;6.46;94.45;102865.88;5001171;28;20052;-69
2023/05/03 04:06:41;;;;;;;7.45;2.15;;;;;;;6.43;94.52;102875.59;5004594;28;20141;-70
2023/05/03 04:09:08;;;;;;;6.55;2.50;;;;;;;6.45;93.50;102872.00;4997377;28;20359;-70
2023/05/03 04:11:35;;;;;;;7.50;2.53;;;;;;;6.45;93.58;102869.41;5003757;28;20133;-70
2023/05/03 04:14:02;;;;;;;8.23;2.47;;;;;;;6.44;92.63;102864.25;5001996;28;20232;-70
2023/05/03 04:16:29;;;;;;;7.90;2.00;;;;;;;6.44;92.00;102875.53;5008210;28;20392;-70
2023/05/03 04:18:55;;;;;;;6.65;2.30;;;;;;;6.44;93.69;102874.69;5005735;28;20046;-69
2023/05/03 04:21:22;;;;;;;6.40;2.05;;;;;;;6.42;93.09;102876.53;4995731;28;20089;-70
2023/05/03 04:23:48;;;;;;;6.00;2.50;;;;;;;6.43;93.03;102883.41;5005923;28;20072;-70
2023/05/03 04:26:16;;;;;;;3.67;2.15;;;;;;;6.40;93.83;102880.97;4993913;28;20071;-70
2023/05/03 04:28:57;;;;;;;4.90;2.22;;;;;;;6.41;92.06;102877.41;5005768;28;20050;-70
2023/05/03 04:31:24;;;;;;;4.18;2.35;;;;;;;6.39;94.35;102887.94;5000028;28;20054;-70
2023/05/03 04:33:50;;;;;;;5.07;2.55;;;;;;;6.38;94.14;102890.59;5003403;28;20081;-70
2023/05/03 04:36:17;;;;;;;5.00;2.50;;;;;;;6.37;94.03;102897.59;5004529;28;20057;-68
2023/05/03 04:38:44;;;;;;;7.32;2.50;;;;;;;6.36;93.26;102897.66;5005133;28;20076;-70
2023/05/03 04:41:11;;;;;;;4.82;2.47;;;;;;;6.36;94.83;102895.03;5007432;28;20056;-70
2023/05/03 04:43:41;;;;;;;6.68;2.30;;;;;;;6.33;93.16;102899.47;5001951;28;20104;-70
2023/05/03 04:46:09;;;;;;;7.10;2.97;;;;;;;6.34;94.10;102903.75;5003809;28;20046;-71
2023/05/03 04:48:35;;;;;;;9.65;2.83;;;;;;;6.36;94.46;102900.25;4996721;28;20100;-70
2023/05/03 04:51:02;;;;;;;6.82;2.63;;;;;;;6.38;93.11;102909.69;5007859;28;20096;-70
2023/05/03 04:53:29;;;;;;;6.50;2.40;;;;;;;6.41;93.83;102916.53;5005673;28;20057;-70
2023/05/03 04:55:55;;;;;;;4.90;2.58;;;;;;;6.37;96.72;102915.84;5008414;28;20061;-70
2023/05/03 04:58:22;;;;;;;4.90;2.42;;;;;;;6.40;95.03;102922.66;5010527;28;20050;-70
2023/05/03 05:00:49;;;;;;;4.53;3.30;;;;;;;6.47;94.74;102934.53;4999865;28;20104;-71
2023/05/03 05:03:15;;;;;;;8.27;2.75;;;;;;;6.47;94.85;102935.38;5005816;28;20049;-69
2023/05/03 05:05:42;;;;;;;4.40;2.30;;;;;;;6.53;93.88;102940.31;4995632;28;20518;-69
2023/05/03 05:08:08;;;;;;;5.68;3.25;;;;;;;6.56;95.39;102941.09;5010977;28;20060;-69
2023/05/03 05:10:37;;;;;;;6.95;2.83;;;;;;;6.59;95.41;102946.19;5009012;28;20056;-69
2023/05/03 05:13:04;;;;;;;6.28;2.72;;;;;;;6.62;94.08;102940.81;5006849;28;20050;-68
2023/05/03 05:15:30;;;;;;;8.68;2.53;;;;;;;6.66;94.28;102945.81;5005772;28;20050;-69
2023/05/03 05:17:56;;;;;;;7.70;2.97;;;;;;;6.66;93.63;102947.56;5001482;28;20050;-69
2023/05/03 05:20:23;;;;;;;5.25;2.40;;;;;;;6.73;91.51;102949.00;5010454;28;20410;-70
2023/05/03 05:22:50;;;;;;;6.68;2.22;;;;;;;6.76;92.53;102941.03;5004034;28;20128;-69
2023/05/03 05:25:17;;;;;;;7.18;2.60;;;;;;;6.85;91.69;102956.25;5010521;28;20046;-69
2023/05/03 05:27:43;;;;;;;6.93;2.53;;;;;;;6.85;92.12;102951.03;5008742;28;20042;-69
2023/05/03 05:30:10;;;;;;;10.30;2.92;;;;;;;6.89;93.68;102952.59;4997838;28;20544;-69
2023/05/03 05:32:37;;;;;;;7.07;3.10;;;;;;;6.87;94.47;102946.59;5010524;28;20078;-69
2023/05/03 05:35:04;;;;;;;7.07;2.85;;;;;;;6.93;95.79;102953.31;4986415;28;20474;-69
2023/05/03 05:37:30;;;;;;;6.93;3.00;;;;;;;6.96;95.62;102955.78;5009606;28;20050;-69
2023/05/03 05:39:57;;;;;;;5.13;2.92;;;;;;;6.99;93.63;102960.84;5005017;28;20084;-69
2023/05/03 05:42:23;;;;;;;11.20;2.85;;;;;;;7.02;95.32;102959.88;5005761;28;20132;-70
2023/05/03 05:44:51;;;;;;;7.40;2.95;;;;;;;7.07;95.65;102961.34;4997705;28;20142;-70
2023/05/03 05:47:17;;;;;;;7.47;2.78;;;;;;;7.13;94.17;102962.81;5001627;28;20050;-69
2023/05/03 05:49:44;;;;;;;6.95;3.17;;;;;;;7.14;96.72;102964.53;5011170;28;20054;-68
2023/05/03 05:52:10;;;;;;;5.15;2.58;;;;;;;7.17;96.33;102956.53;5003012;28;20061;-69
2023/05/03 05:54:37;;;;;;;6.10;2.85;;;;;;;7.21;96.97;102958.06;5003659;28;20065;-71
2023/05/03 05:57:03;;;;;;;7.97;2.80;;;;;;;7.26;95.15;102957.88;5000285;28;20121;-69
2023/05/03 05:59:30;;;;;;;6.22;2.63;;;;;;;7.28;97.16;102964.72;5001517;28;20063;-69
2023/05/03 06:01:58;;;;;;;4.60;2.83;;;;;;;7.30;96.31;102967.25;5009392;28;20065;-70
2023/05/03 06:04:26;;;;;;;;;;;;;;;7.35;95.52;102964.41;5004748;28;20058;-67
2023/05/03 06:06:52;;;;;;;4.25;2.08;;;;;;;7.37;93.99;102967.81;5007496;28;19960;-69
2023/05/03 06:09:19;;;;;;;7.60;2.65;;;;;;;7.40;92.83;102970.28;5003524;28;20054;-69
2023/05/03 06:11:50;;;;;;;5.88;2.50;;;;;;;7.41;91.35;102958.91;5004347;28;20512;-69
2023/05/03 06:14:19;;;;;;;7.18;3.17;;;;;;;7.45;89.33;102953.47;4988621;28;20054;-69
2023/05/03 06:16:46;;;;;;;5.50;2.38;;;;;;;7.49;87.27;102959.41;5009861;28;20085;-69
2023/05/03 06:19:12;;;;;;;4.88;2.47;;;;;;;7.54;87.08;102957.41;5009017;28;20483;-70
2023/05/03 06:21:39;;;;;;;5.95;2.00;;;;;;;7.61;87.25;102960.56;5005139;28;20426;-70
2023/05/03 06:24:05;;;;;;;6.55;2.10;;;;;;;7.65;86.96;102952.50;5010051;28;20045;-69
2023/05/03 06:26:32;;;;;;;6.65;2.03;;;;;;;7.66;85.16;102951.59;4997182;28;20052;-68
2023/05/03 06:28:59;;;;;;;4.75;1.50;;;;;;;7.72;82.64;102958.25;5009339;28;20042;-69
2023/05/03 06:31:26;;;;;;;3.88;2.10;;;;;;;7.73;83.23;102952.13;5004020;28;20565;-69
2023/05/03 06:33:52;;;;;;;7.30;2.30;;;;;;;7.81;80.67;102952.59;5009341;28;20081;-69
2023/05/03 06:36:19;;;;;;;7.10;2.65;;;;;;;7.84;82.79;102962.91;5008833;28;20144;-69
2023/05/03 06:38:46;;;;;;;4.07;2.25;;;;;;;7.89;82.96;102960.06;4997282;28;20108;-68
2023/05/03 06:41:12;;;;;;;6.88;2.75;;;;;;;7.95;83.91;102958.91;5006137;28;20602;-69
2023/05/03 06:43:39;;;;;;;7.28;2.45;;;;;;;7.93;82.38;102967.66;5003397;28;20414;-69
2023/05/03 06:46:05;;;;;;;5.40;2.25;;;;;;;7.95;81.58;102957.13;5009774;28;20715;-69
2023/05/03 06:48:32;;;;;;;7.15;2.40;;;;;;;8.00;81.79;102954.31;5002416;28;20132;-69
2023/05/03 06:50:58;;;;;;;3.95;2.22;;;;;;;8.02;80.50;102955.06;5006553;28;20064;-69
2023/05/03 06:53:25;;;;;;;5.88;2.28;;;;;;;8.09;79.92;102948.59;5003552;28;20074;-68
2023/05/03 06:55:51;;;;;;;2.50;1.83;;;;;;;8.14;79.21;102949.22;5003163;28;20070;-69
2023/05/03 06:58:18;;;;;;;6.38;2.50;;;;;;;8.20;80.40;102950.66;5008850;28;20112;-69
2023/05/03 07:00:45;;;;;;;4.32;2.20;;;;;;;8.21;77.83;102939.28;5002317;28;20050;-69
2023/05/03 07:03:11;;;;;;;4.45;1.80;;;;;;;8.29;74.64;102942.31;5007973;28;20083;-68
2023/05/03 07:05:39;;;;;;;5.32;1.58;;;;;;;8.38;74.49;102934.00;4998686;28;20127;-68
2023/05/03 07:08:06;;;;;;;5.70;1.63;;;;;;;8.44;74.79;102938.94;5003859;28;20053;-68
2023/05/03 07:10:33;;;;;;;5.45;2.10;;;;;;;8.46;75.53;102939.72;5007055;28;20057;-67
2023/05/03 07:12:59;;;;;;;4.47;1.98;;;;;;;8.48;76.41;102939.63;5003015;28;20041;-68
2023/05/03 07:15:26;;;;;;;4.00;1.90;;;;;;;8.52;75.53;102939.38;5008685;28;20082;-68
2023/05/03 07:17:52;;;;;;;6.55;2.03;;;;;;;8.57;75.30;102943.56;5002084;28;20132;-69
2023/05/03 07:20:19;;;;;;;3.53;1.83;;;;;;;8.62;75.59;102944.97;5004007;28;20173;-69
2023/05/03 07:22:45;;;;;;;5.22;2.03;;;;;;;8.66;75.58;102951.75;4998418;28;20054;-69
2023/05/03 07:25:13;;;;;;;6.93;1.90;;;;;;;8.67;75.21;102948.22;5007535;28;20470;-69
2023/05/03 07:27:39;;;;;;;5.43;2.63;;;;;;;8.74;74.92;102951.31;5008520;28;20789;-70
2023/05/03 07:30:06;;;;;;;4.30;2.38;;;;;;;8.74;74.25;102945.25;5002590;28;20054;-68
2023/05/03 07:32:33;;;;;;;6.95;2.25;;;;;;;8.82;73.55;102957.03;5007165;28;20088;-67
2023/05/03 07:35:00;;;;;;;8.50;2.53;;;;;;;8.86;73.62;102944.59;4995528;28;20061;-69
2023/05/03 07:37:26;;;;;;;7.22;2.13;;;;;;;8.94;72.09;102939.81;5005031;28;20072;-70
2023/05/03 07:39:53;;;;;;;4.90;2.08;;;;;;;9.01;72.89;102935.91;5002093;28;20105;-69
2023/05/03 07:42:19;;;;;;;4.60;2.20;;;;;;;9.05;73.11;102933.97;5007849;28;20523;-70
2023/05/03 07:44:46;;;;;;;6.97;2.13;;;;;;;9.11;72.62;102920.53;5008382;28;20058;-70
2023/05/03 07:47:12;;;;;;;8.57;2.90;;;;;;;9.18;71.66;102915.81;4995750;28;20469;-69
2023/05/03 07:49:39;;;;;;;4.00;2.20;;;;;;;9.21;72.07;102915.63;5004222;28;20045;-70
2023/05/03 07:52:05;;;;;;;4.35;2.22;;;;;;;9.27;70.61;102913.53;5001326;28;20116;-69
2023/05/03 07:54:32;;;;;;;4.80;2.05;;;;;;;9.35;70.52;102907.84;5008272;28;20046;-68
2023/05/03 07:56:58;;;;;;;5.45;2.40;;;;;;;9.33;69.05;102896.63;5001637;28;20054;-70
2023/05/03 07:59:25;;;;;;;4.47;2.00;;;;;;;9.38;70.47;102905.03;5004341;28;20062;-69
2023/05/03 08:01:51;;;;;;;8.32;2.00;;;;;;;9.42;70.42;102901.31;4991092;28;20057;-70
2023/05/03 08:04:18;;;;;;;3.08;1.52;;;;;;;9.49;67.65;102894.81;4997610;28;20054;-69
2023/05/03 08:06:45;;;;;;;3.33;1.25;;;;;;;9.57;67.05;102890.91;5008583;28;20060;-70
2023/05/03 08:09:12;;;;;;;7.25;1.70;;;;;;;9.60;66.23;102886.31;4999868;28;20137;-68
2023/05/03 08:11:39;;;;;;;6.07;1.67;;;;;;;9.70;65.67;102879.63;4997177;28;20057;-69
2023/05/03 08:14:09;;;;;;;4.13;1.50;;;;;;;9.97;65.60;102878.88;5008578;28;20450;-70
2023/05/03 08:16:35;;;;;;;6.07;1.70;;;;;;;10.25;65.88;102882.47;4996905;28;20080;-67
2023/05/03 08:19:03;;;;;;;6.05;1.40;;;;;;;10.67;65.07;102883.41;5004792;28;20060;-70
2023/05/03 08:21:30;;;;;;;4.50;1.67;;;;;;;10.96;62.05;102878.09;5001278;28;20502;-70
2023/05/03 08:23:56;;;;;;;4.53;1.73;;;;;;;11.32;60.73;102884.53;5008236;28;20054;-70
2023/05/03 08:26:23;;;;;;;7.25;1.40;;;;;;;11.76;60.30;102892.09;5001311;28;20058;-70
2023/05/03 08:28:49;;;;;;;6.15;1.60;;;;;;;12.04;59.14;102882.34;5006680;28;20042;-69
2023/05/03 08:31:16;;;;;;;3.97;1.77;;;;;;;12.36;57.84;102889.78;5001971;28;20586;-69
2023/05/03 08:33:43;;;;;;;8.23;1.50;;;;;;;12.61;56.80;102887.09;5008498;28;20054;-70
2023/05/03 08:36:09;;;;;;;8.00;2.08;;;;;;;12.94;57.62;102887.44;5011753;28;20505;-70
2023/05/03 08:38:39;;;;;;;3.70;1.80;;;;;;;13.21;55.98;102885.41;5006019;28;20054;-68
2023/05/03 08:41:26;;;;;;;5.97;2.03;;;;;;;13.46;54.46;102878.31;5011934;28;20050;-70
2023/05/03 08:43:55;;;;;;;;;;;;;;;13.74;54.50;102881.50;5000513;28;20688;-70
2023/05/03 08:46:22;;;;;;;4.20;1.80;;;;;;;13.85;53.23;102877.09;5006755;28;19921;-70
2023/05/03 08:48:51;;;;;;;4.82;1.90;;;;;;;14.07;53.26;102874.59;5004742;28;20057;-69
2023/05/03 08:51:20;;;;;;;2.80;1.52;;;;;;;14.31;53.40;102877.97;5004984;28;20149;-68
2023/05/03 08:53:47;;;;;;;5.47;1.80;;;;;;;14.48;52.22;102883.69;5011749;28;20620;-68
2023/05/03 08:56:29;;;;;;;4.97;1.73;;;;;;;14.65;52.57;102863.91;4999192;28;20049;-70
2023/05/03 08:58:56;;;;;;;11.57;1.90;;;;;;;14.83;51.68;102863.25;5004529;28;20077;-70
2023/05/03 09:01:22;;;;;;;2.50;1.70;;;;;;;14.97;51.05;102846.25;5004300;28;20513;-71
2023/05/03 09:03:50;;;;;;;5.40;1.85;;;;;;;15.13;50.51;102850.28;5002610;28;20128;-67
2023/05/03 09:06:25;;;;;;;6.10;1.70;;;;;;;15.34;49.51;102840.56;5004914;28;20058;-70
2023/05/03 09:08:52;;;;;;;6.25;1.73;;;;;;;15.46;48.60;102848.44;5006450;28;20045;-69
2023/05/03 09:11:39;;;;;;;3.92;1.60;;;;;;;15.52;48.83;102854.06;5002807;28;20053;-70
2023/05/03 09:14:13;;;;;;;9.75;2.28;;;;;;;15.73;49.63;102858.53;5006163;28;20446;-69
2023/05/03 09:16:43;;;;;;;7.40;2.10;;;;;;;15.88;50.15;102865.16;5010528;28;20049;-70
2023/05/03 09:19:11;;;;;;;5.50;1.90;;;;;;;15.97;48.86;102864.34;5005187;28;20062;-71
2023/05/03 09:21:39;;;;;;;7.30;2.13;;;;;;;16.19;48.36;102873.09;5005215;28;20055;-70
2023/05/03 09:24:13;;;;;;;;;;;;;;;16.25;48.73;102872.59;5002550;28;20075;-69
2023/05/03 09:26:41;;;;;;;6.05;2.10;;;;;;;16.33;47.58;102874.56;5004220;28;19929;-69
2023/05/03 09:29:08;;;;;;;3.40;1.73;;;;;;;16.45;47.89;102883.25;5001998;28;20060;-69
2023/05/03 09:31:35;;;;;;;5.72;2.08;;;;;;;16.46;46.29;102874.31;5008050;28;20056;-70
2023/05/03 09:34:20;;;;;;;4.03;1.85;;;;;;;16.58;46.80;102874.06;5010375;28;20046;-70
2023/05/03 09:36:47;;;;;;;5.80;2.00;;;;;;;16.53;46.33;102860.38;5008744;28;20061;-70
2023/05/03 09:39:18;;;;;;;5.97;2.15;;;;;;;16.75;46.34;102861.13;5004936;28;20053;-70
2023/05/03 09:41:44;;;;;;;2.55;1.70;;;;;;;16.79;46.89;102862.53;4997784;28;20133;-71
2023/05/03 09:44:11;;;;;;;7.85;1.95;;;;;;;16.96;47.57;102864.53;5010065;28;20558;-68
2023/05/03 09:46:38;;;;;;;5.25;2.03;;;;;;;17.03;46.40;102861.31;5004719;28;20419;-71
2023/05/03 09:49:05;;;;;;;6.10;1.95;;;;;;;17.16;46.31;102853.91;5010835;28;20048;-70
2023/05/03 09:51:32;;;;;;;5.35;2.10;;;;;;;17.24;46.68;102861.19;5009002;28;20060;-70
2023/05/03 09:53:58;;;;;;;4.88;2.10;;;;;;;17.27;45.14;102853.78;5000928;28;20495;-70
2023/05/03 09:56:25;;;;;;;4.63;1.80;;;;;;;17.37;45.62;102854.59;5004989;28;20054;-70
2023/05/03 09:58:53;;;;;;;5.95;1.80;;;;;;;17.52;46.18;102859.44;5004063;28;20419;-70
2023/05/03 10:01:23;;;;;;;5.40;2.00;;;;;;;17.49;45.36;102857.09;5010077;28;20689;-70
2023/05/03 10:03:51;;;;;;;4.95;2.10;;;;;;;17.63;45.65;102859.28;5000695;28;20133;-70
2023/05/03 10:06:23;;;;;;;5.07;2.25;;;;;;;17.72;44.93;102857.59;5001645;28;20535;-71
2023/05/03 10:09:09;;;;;;;5.82;1.83;;;;;;;17.60;43.95;102848.94;5002961;28;20136;-71
2023/05/03 10:11:36;;;;;;;4.13;2.13;;;;;;;17.76;44.47;102848.38;5008736;28;20056;-70
2023/05/03 10:14:06;;;;;;;7.07;2.25;;;;;;;17.86;44.29;102857.16;5009563;28;20049;-69
2023/05/03 10:16:37;;;;;;;3.67;1.80;;;;;;;17.93;44.03;102847.63;5000806;28;20557;-70
2023/05/03 10:19:33;;;;;;;5.68;2.17;;;;;;;18.01;44.05;102854.88;5009328;28;20046;-70
2023/05/03 10:22:06;;;;;;;6.03;2.03;;;;;;;18.05;44.04;102850.94;4991553;28;20046;-70
2023/05/03 10:24:35;;;;;;;3.63;2.00;;;;;;;18.13;43.28;102845.75;5001538;28;20470;-70
2023/05/03 10:27:05;;;;;;;7.22;2.20;;;;;;;18.16;44.44;102848.09;5002993;28;20054;-71
2023/05/03 10:29:44;;;;;;;5.47;2.17;;;;;;;18.34;45.07;102852.63;5008101;28;20069;-71
2023/05/03 10:32:30;;;;;;;7.00;1.98;;;;;;;18.65;45.42;102849.63;5003439;28;20058;-68
2023/05/03 10:35:02;;;;;;;4.70;2.00;;;;;;;18.73;44.37;102845.22;5006289;28;20475;-68
2023/05/03 10:37:32;;;;;;;7.00;2.10;;;;;;;18.70;43.87;102844.69;5003935;28;20100;-69
2023/05/03 10:40:14;;;;;;;6.45;1.65;;;;;;;18.81;43.45;102841.84;5003212;28;20053;-70
2023/05/03 10:42:48;;;;;;;3.22;1.67;;;;;;;18.91;43.10;102841.78;5005987;28;20137;-70
2023/05/03 10:45:21;;;;;;;4.40;2.25;;;;;;;18.97;42.45;102835.84;5003185;28;20068;-70
2023/05/03 10:48:06;;;;;;;7.28;2.13;;;;;;;18.86;42.25;102834.25;5008992;28;20140;-70
2023/05/03 10:50:33;;;;;;;8.77;2.58;;;;;;;19.05;42.79;102835.06;4990943;28;20124;-69
2023/05/03 10:52:59;;;;;;;4.35;1.85;;;;;;;19.18;42.05;102824.88;5005768;28;20061;-68
2023/05/03 10:55:26;;;;;;;4.38;1.85;;;;;;;19.22;42.12;102828.06;4992251;28;20309;-70
2023/05/03 10:57:57;;;;;;;6.65;1.95;;;;;;;19.31;41.84;102835.97;5008053;28;20049;-70
2023/05/03 11:00:34;;;;;;;4.35;1.83;;;;;;;19.21;40.80;102829.91;5008612;28;20053;-70
2023/05/03 11:03:20;;;;;;;7.47;2.08;;;;;;;19.45;41.90;102828.41;4997404;28;20065;-70
2023/05/03 11:05:47;;;;;;;5.28;2.00;;;;;;;19.44;41.49;102826.72;5006945;28;20081;-70
2023/05/03 11:08:19;;;;;;;5.03;1.80;;;;;;;19.71;42.67;102823.91;5006625;28;20056;-70
2023/05/03 11:10:48;;;;;;;4.93;2.00;;;;;;;19.78;41.48;102820.63;5010261;28;20410;-69
2023/05/03 11:13:15;;;;;;;5.40;2.10;;;;;;;19.85;41.19;102809.16;4995494;28;20077;-70
2023/05/03 11:15:42;;;;;;;2.70;1.52;;;;;;;19.94;40.82;102807.41;5008413;28;20077;-68
2023/05/03 11:18:12;;;;;;;3.85;1.90;;;;;;;20.08;40.96;102808.59;4997170;28;20058;-71
2023/05/03 11:20:39;;;;;;;4.07;1.70;;;;;;;20.09;40.31;102805.78;5003252;28;20070;-69
2023/05/03 11:23:06;;;;;;;5.13;2.45;;;;;;;20.13;39.76;102807.13;5008757;28;20046;-71
2023/05/03 11:25:33;;;;;;;4.65;2.10;;;;;;;20.25;39.84;102802.34;5002902;28;20053;-71
2023/05/03 11:28:00;;;;;;;6.15;2.00;;;;;;;20.24;39.37;102794.50;5007125;28;20072;-71
2023/05/03 11:30:28;;;;;;;4.35;2.15;;;;;;;20.26;40.20;102789.84;5001691;28;20049;-71
2023/05/03 11:32:55;;;;;;;4.97;2.00;;;;;;;20.32;39.54;102797.19;4998853;28;20102;-70
2023/05/03 11:35:24;;;;;;;6.28;1.80;;;;;;;20.37;39.59;102786.88;5003092;28;20657;-70